Fumimaru No.28 — JK5561 — position and weather

sailwx.info

Track history (hours):
 
Tides and Currents Weather Stations Pressure Air Temp Water Temp Dewpoint Dewpoint Depression Visibility Wind Speed Wind Dir Waves Ship Positions

Fumimaru No.28

Last reported at 2018-Jul-16 13:32 UTC. Time now 2018-Jul-19 19:24 UTC.
Position N 34°58' E 139°43'.

Length 30 m; draft 4 m.

MMSI: 431400734.

Date/timePositionNaut miles runAvg speedWind from/ knotsBaromVisibWave heightAir tempDewpointWater temp
2018-Jul-16 13:32N 34°58' E 139°43'3 8.3
2018-Jul-16 13:10N 35°01' E 139°43'1 7.9
2018-Jul-16 13:00N 35°02' E 139°44'4 7.4
2018-Jul-16 12:30N 35°06' E 139°45'4 6.9
2018-Jul-16 11:59N 35°09' E 139°45'3 6.8
2018-Jul-16 11:31N 35°12' E 139°46'4 7.7
2018-Jul-16 11:00N 35°16' E 139°46'4 7.7
2018-Jul-16 10:31N 35°19' E 139°43'4 7.4
2018-Jul-16 10:01N 35°23' E 139°43'4 7.4
2018-Jul-16 09:30N 35°26' E 139°46'4 7.5
2018-Jul-16 09:00N 35°28' E 139°49'  
2018-Jul-12 05:38N 35°25' E 139°47'1 8.4
2018-Jul-12 05:29N 35°24' E 139°46'4 8.9
2018-Jul-12 05:01N 35°20' E 139°45'5 8.4
2018-Jul-12 04:23N 35°15' E 139°47'3 8.8
2018-Jul-12 04:01N 35°12' E 139°47'4 7.5
2018-Jul-12 03:31N 35°08' E 139°47'4 7.0
2018-Jul-12 03:00N 35°06' E 139°44'4 8.0
2018-Jul-12 02:31N 35°03' E 139°41'4 8.6
2018-Jul-12 01:59N 34°60' E 139°36'234 6.7
2018-Jul-10 14:57N 33°59' E 135°02'4 7.8
2018-Jul-10 14:29N 34°02' E 135°02'4 7.9
2018-Jul-10 13:56N 34°07' E 135°02'4 8.3
2018-Jul-10 13:30N 34°10' E 135°02'4 8.5
2018-Jul-10 13:00N 34°15' E 135°02'3 6.7
2018-Jul-10 12:31N 34°17' E 135°04'4 7.4
2018-Jul-10 12:00N 34°21' E 135°06'4 7.5
2018-Jul-10 11:30N 34°24' E 135°08'3 7.1
2018-Jul-10 11:01N 34°27' E 135°11'3 6.5
2018-Jul-10 10:30N 34°29' E 135°14'3 6.7
2018-Jul-10 10:01N 34°30' E 135°18'4 6.7
2018-Jul-10 09:27N 34°32' E 135°22'2 2.1
2018-Jul-10 08:19N 34°31' E 135°24'2 6.8
2018-Jul-10 07:58N 34°33' E 135°23'510.3
2018-Jul-10 07:30N 34°38' E 135°23'4 7.4
2018-Jul-10 07:00N 34°40' E 135°27'0 0.0
2018-Jul-10 06:31N 34°40' E 135°27'0 0.0
2018-Jul-10 06:00N 34°40' E 135°27'0 0.0
2018-Jul-10 05:30N 34°40' E 135°27'0 0.0
2018-Jul-10 05:01N 34°40' E 135°27'0 0.0
2018-Jul-10 04:30N 34°40' E 135°27'0 0.0
2018-Jul-10 04:00N 34°40' E 135°27'0 0.0
2018-Jul-10 03:31N 34°40' E 135°27'0 0.0
2018-Jul-10 03:01N 34°40' E 135°27'0 0.0
2018-Jul-10 02:31N 34°40' E 135°27'0 0.0
2018-Jul-10 02:01N 34°40' E 135°27'0 0.0
2018-Jul-10 01:31N 34°40' E 135°27'0 0.0
2018-Jul-10 01:00N 34°40' E 135°27'0 0.0
2018-Jul-10 00:30N 34°40' E 135°27'0 0.0
2018-Jul-09 23:59N 34°40' E 135°27'0 0.0
2018-Jul-09 23:30N 34°40' E 135°27'0 0.0
2018-Jul-09 23:01N 34°40' E 135°27'0 0.0
2018-Jul-09 22:30N 34°40' E 135°27'0 0.0
2018-Jul-09 21:57N 34°40' E 135°27'0 0.0
2018-Jul-09 21:30N 34°40' E 135°27'0 0.0
2018-Jul-09 17:37N 34°40' E 135°27'0 0.0
2018-Jul-09 17:30N 34°40' E 135°27'0 0.0
2018-Jul-09 11:38N 34°40' E 135°27'0 0.0
2018-Jul-09 11:15N 34°40' E 135°27'0 0.0
2018-Jul-09 11:00N 34°40' E 135°27'0 0.0
2018-Jul-09 10:23N 34°40' E 135°27'0 0.0
2018-Jul-09 10:01N 34°40' E 135°27'0 0.0
2018-Jul-09 09:27N 34°40' E 135°27'0 0.0
2018-Jul-09 08:04N 34°40' E 135°27'0 0.0
2018-Jul-09 08:01N 34°40' E 135°27'4 8.6
2018-Jul-09 07:30N 34°38' E 135°23'610.9
2018-Jul-09 07:00N 34°33' E 135°18'611.0
2018-Jul-09 06:29N 34°29' E 135°14'811.3
2018-Jul-09 05:48N 34°24' E 135°07'511.7
2018-Jul-09 05:22N 34°20' E 135°03'411.5
2018-Jul-09 05:01N 34°17' E 134°60'611.1
2018-Jul-09 04:29N 34°13' E 134°54'9 2.6
2018-Jul-09 00:51N 34°06' E 134°47'2 5.1
2018-Jul-09 00:25N 34°04' E 134°49'7 5.2
2018-Jul-08 23:06N 33°59' E 134°55'1 5.2
2018-Jul-08 22:59N 33°59' E 134°55'6 4.9
2018-Jul-08 21:51N 33°54' E 134°60'  
Track history (hours):
 
Tides and Currents Weather Stations Pressure Air Temp Water Temp Dewpoint Dewpoint Depression Visibility Wind Speed Wind Dir Waves Ship Positions

Fumimaru No.28

Last reported at 2018-Jul-16 13:32 UTC. Time now 2018-Jul-19 19:24 UTC.
Position N 34°58' E 139°43'.

Length 30 m; draft 4 m.

MMSI: 431400734.

Date/timePositionNaut miles runAvg speedWind from/ knotsBaromVisibWave heightAir tempDewpointWater temp
2018-Jul-16 13:32N 34°58' E 139°43'3 8.3
2018-Jul-16 13:10N 35°01' E 139°43'1 7.9
2018-Jul-16 13:00N 35°02' E 139°44'4 7.4
2018-Jul-16 12:30N 35°06' E 139°45'4 6.9
2018-Jul-16 11:59N 35°09' E 139°45'3 6.8
2018-Jul-16 11:31N 35°12' E 139°46'4 7.7
2018-Jul-16 11:00N 35°16' E 139°46'4 7.7
2018-Jul-16 10:31N 35°19' E 139°43'4 7.4
2018-Jul-16 10:01N 35°23' E 139°43'4 7.4
2018-Jul-16 09:30N 35°26' E 139°46'4 7.5
2018-Jul-16 09:00N 35°28' E 139°49'  
2018-Jul-12 05:38N 35°25' E 139°47'1 8.4
2018-Jul-12 05:29N 35°24' E 139°46'4 8.9
2018-Jul-12 05:01N 35°20' E 139°45'5 8.4
2018-Jul-12 04:23N 35°15' E 139°47'3 8.8
2018-Jul-12 04:01N 35°12' E 139°47'4 7.5
2018-Jul-12 03:31N 35°08' E 139°47'4 7.0
2018-Jul-12 03:00N 35°06' E 139°44'4 8.0
2018-Jul-12 02:31N 35°03' E 139°41'4 8.6
2018-Jul-12 01:59N 34°60' E 139°36'234 6.7
2018-Jul-10 14:57N 33°59' E 135°02'4 7.8
2018-Jul-10 14:29N 34°02' E 135°02'4 7.9
2018-Jul-10 13:56N 34°07' E 135°02'4 8.3
2018-Jul-10 13:30N 34°10' E 135°02'4 8.5
2018-Jul-10 13:00N 34°15' E 135°02'3 6.7
2018-Jul-10 12:31N 34°17' E 135°04'4 7.4
2018-Jul-10 12:00N 34°21' E 135°06'4 7.5
2018-Jul-10 11:30N 34°24' E 135°08'3 7.1
2018-Jul-10 11:01N 34°27' E 135°11'3 6.5
2018-Jul-10 10:30N 34°29' E 135°14'3 6.7
2018-Jul-10 10:01N 34°30' E 135°18'4 6.7
2018-Jul-10 09:27N 34°32' E 135°22'2 2.1
2018-Jul-10 08:19N 34°31' E 135°24'2 6.8
2018-Jul-10 07:58N 34°33' E 135°23'510.3
2018-Jul-10 07:30N 34°38' E 135°23'4 7.4
2018-Jul-10 07:00N 34°40' E 135°27'0 0.0
2018-Jul-10 06:31N 34°40' E 135°27'0 0.0
2018-Jul-10 06:00N 34°40' E 135°27'0 0.0
2018-Jul-10 05:30N 34°40' E 135°27'0 0.0
2018-Jul-10 05:01N 34°40' E 135°27'0 0.0
2018-Jul-10 04:30N 34°40' E 135°27'0 0.0
2018-Jul-10 04:00N 34°40' E 135°27'0 0.0
2018-Jul-10 03:31N 34°40' E 135°27'0 0.0
2018-Jul-10 03:01N 34°40' E 135°27'0 0.0
2018-Jul-10 02:31N 34°40' E 135°27'0 0.0
2018-Jul-10 02:01N 34°40' E 135°27'0 0.0
2018-Jul-10 01:31N 34°40' E 135°27'0 0.0
2018-Jul-10 01:00N 34°40' E 135°27'0 0.0
2018-Jul-10 00:30N 34°40' E 135°27'0 0.0
2018-Jul-09 23:59N 34°40' E 135°27'0 0.0
2018-Jul-09 23:30N 34°40' E 135°27'0 0.0
2018-Jul-09 23:01N 34°40' E 135°27'0 0.0
2018-Jul-09 22:30N 34°40' E 135°27'0 0.0
2018-Jul-09 21:57N 34°40' E 135°27'0 0.0
2018-Jul-09 21:30N 34°40' E 135°27'0 0.0
2018-Jul-09 17:37N 34°40' E 135°27'0 0.0
2018-Jul-09 17:30N 34°40' E 135°27'0 0.0
2018-Jul-09 11:38N 34°40' E 135°27'0 0.0
2018-Jul-09 11:15N 34°40' E 135°27'0 0.0
2018-Jul-09 11:00N 34°40' E 135°27'0 0.0
2018-Jul-09 10:23N 34°40' E 135°27'0 0.0
2018-Jul-09 10:01N 34°40' E 135°27'0 0.0
2018-Jul-09 09:27N 34°40' E 135°27'0 0.0
2018-Jul-09 08:04N 34°40' E 135°27'0 0.0
2018-Jul-09 08:01N 34°40' E 135°27'4 8.6
2018-Jul-09 07:30N 34°38' E 135°23'610.9
2018-Jul-09 07:00N 34°33' E 135°18'611.0
2018-Jul-09 06:29N 34°29' E 135°14'811.3
2018-Jul-09 05:48N 34°24' E 135°07'511.7
2018-Jul-09 05:22N 34°20' E 135°03'411.5
2018-Jul-09 05:01N 34°17' E 134°60'611.1
2018-Jul-09 04:29N 34°13' E 134°54'9 2.6
2018-Jul-09 00:51N 34°06' E 134°47'2 5.1
2018-Jul-09 00:25N 34°04' E 134°49'7 5.2
2018-Jul-08 23:06N 33°59' E 134°55'1 5.2
2018-Jul-08 22:59N 33°59' E 134°55'6 4.9
2018-Jul-08 21:51N 33°54' E 134°60'  

Dump ship's entire track history